sensor_id;sensor_type;location;lat;lon;timestamp;pressure;altitude;pressure_sealevel;temperature;humidity
62948;BME280;51940;52.126;-0.994;2023-03-20T00:03:37;100667.60;;;6.59;100.00
62948;BME280;51940;52.126;-0.994;2023-03-20T00:06:03;100669.73;;;6.56;100.00
62948;BME280;51940;52.126;-0.994;2023-03-20T00:08:28;100669.39;;;6.54;100.00
62948;BME280;51940;52.126;-0.994;2023-03-20T00:10:53;100665.67;;;6.52;100.00
62948;BME280;51940;52.126;-0.994;2023-03-20T00:13:21;100664.44;;;6.51;100.00
62948;BME280;51940;52.126;-0.994;2023-03-20T00:15:48;100661.44;;;6.50;100.00
62948;BME280;51940;52.126;-0.994;2023-03-20T00:18:14;100650.25;;;6.48;100.00
62948;BME280;51940;52.126;-0.994;2023-03-20T00:20:43;100643.71;;;6.47;100.00
62948;BME280;51940;52.126;-0.994;2023-03-20T00:23:09;100645.14;;;6.45;100.00
62948;BME280;51940;52.126;-0.994;2023-03-20T00:25:34;100652.78;;;6.42;100.00
62948;BME280;51940;52.126;-0.994;2023-03-20T00:28:02;100658.96;;;6.40;100.00
62948;BME280;51940;52.126;-0.994;2023-03-20T00:30:28;100659.84;;;6.40;100.00
62948;BME280;51940;52.126;-0.994;2023-03-20T00:32:56;100662.69;;;6.39;100.00
62948;BME280;51940;52.126;-0.994;2023-03-20T00:35:23;100665.00;;;6.38;100.00
62948;BME280;51940;52.126;-0.994;2023-03-20T00:37:49;100659.15;;;6.38;100.00
62948;BME280;51940;52.126;-0.994;2023-03-20T00:40:15;100660.39;;;6.39;100.00
62948;BME280;51940;52.126;-0.994;2023-03-20T00:42:40;100659.85;;;6.40;100.00
62948;BME280;51940;52.126;-0.994;2023-03-20T00:45:09;100657.72;;;6.41;100.00
62948;BME280;51940;52.126;-0.994;2023-03-20T00:47:36;100657.20;;;6.41;100.00
62948;BME280;51940;52.126;-0.994;2023-03-20T00:50:06;100652.77;;;6.41;100.00
62948;BME280;51940;52.126;-0.994;2023-03-20T00:52:37;100645.69;;;6.42;100.00
62948;BME280;51940;52.126;-0.994;2023-03-20T00:55:03;100639.49;;;6.42;100.00
62948;BME280;51940;52.126;-0.994;2023-03-20T00:57:29;100638.41;;;6.41;100.00
62948;BME280;51940;52.126;-0.994;2023-03-20T00:59:58;100647.10;;;6.41;100.00
62948;BME280;51940;52.126;-0.994;2023-03-20T01:02:26;100647.27;;;6.40;100.00
62948;BME280;51940;52.126;-0.994;2023-03-20T01:04:52;100648.33;;;6.40;100.00
62948;BME280;51940;52.126;-0.994;2023-03-20T01:07:18;100644.79;;;6.39;100.00
62948;BME280;51940;52.126;-0.994;2023-03-20T01:09:43;100640.18;;;6.40;100.00
62948;BME280;51940;52.126;-0.994;2023-03-20T01:12:11;100641.08;;;6.39;100.00
62948;BME280;51940;52.126;-0.994;2023-03-20T01:14:37;100641.77;;;6.40;100.00
62948;BME280;51940;52.126;-0.994;2023-03-20T01:17:03;100643.55;;;6.40;100.00
62948;BME280;51940;52.126;-0.994;2023-03-20T01:19:28;100640.02;;;6.39;100.00
62948;BME280;51940;52.126;-0.994;2023-03-20T01:21:54;100644.27;;;6.40;100.00
62948;BME280;51940;52.126;-0.994;2023-03-20T01:24:20;100639.48;;;6.39;100.00
62948;BME280;51940;52.126;-0.994;2023-03-20T01:26:45;100638.60;;;6.40;100.00
62948;BME280;51940;52.126;-0.994;2023-03-20T01:29:18;100637.71;;;6.39;100.00
62948;BME280;51940;52.126;-0.994;2023-03-20T01:31:44;100639.48;;;6.39;100.00
62948;BME280;51940;52.126;-0.994;2023-03-20T01:34:10;100637.55;;;6.37;100.00
62948;BME280;51940;52.126;-0.994;2023-03-20T01:36:36;100631.17;;;6.36;100.00
62948;BME280;51940;52.126;-0.994;2023-03-20T01:39:02;100632.42;;;6.35;100.00
62948;BME280;51940;52.126;-0.994;2023-03-20T01:41:28;100628.88;;;6.34;100.00
62948;BME280;51940;52.126;-0.994;2023-03-20T01:43:53;100626.05;;;6.34;100.00
62948;BME280;51940;52.126;-0.994;2023-03-20T01:46:22;100623.05;;;6.34;100.00
62948;BME280;51940;52.126;-0.994;2023-03-20T01:51:19;100619.85;;;6.33;100.00
62948;BME280;51940;52.126;-0.994;2023-03-20T01:53:47;100615.25;;;6.33;100.00
62948;BME280;51940;52.126;-0.994;2023-03-20T01:56:14;100608.88;;;6.34;100.00
62948;BME280;51940;52.126;-0.994;2023-03-20T01:58:46;100605.33;;;6.34;100.00
62948;BME280;51940;52.126;-0.994;2023-03-20T02:01:13;100602.32;;;6.34;100.00
62948;BME280;51940;52.126;-0.994;2023-03-20T02:03:40;100598.25;;;6.34;100.00
62948;BME280;51940;52.126;-0.994;2023-03-20T02:06:07;100600.02;;;6.35;100.00
62948;BME280;51940;52.126;-0.994;2023-03-20T02:08:34;100591.67;;;6.36;100.00
62948;BME280;51940;52.126;-0.994;2023-03-20T02:11:01;100589.38;;;6.36;100.00
62948;BME280;51940;52.126;-0.994;2023-03-20T02:13:26;100582.81;;;6.37;100.00
62948;BME280;51940;52.126;-0.994;2023-03-20T02:15:57;100581.40;;;6.36;100.00
62948;BME280;51940;52.126;-0.994;2023-03-20T02:18:23;100579.81;;;6.35;100.00
62948;BME280;51940;52.126;-0.994;2023-03-20T02:28:30;100567.77;;;6.33;100.00
62948;BME280;51940;52.126;-0.994;2023-03-20T02:39:56;100566.01;;;6.33;100.00
62948;BME280;51940;52.126;-0.994;2023-03-20T02:41:59;100560.52;;;6.34;100.00
62948;BME280;51940;52.126;-0.994;2023-03-20T02:44:32;100551.30;;;6.34;100.00
62948;BME280;51940;52.126;-0.994;2023-03-20T02:47:20;100539.96;;;6.34;100.00
62948;BME280;51940;52.126;-0.994;2023-03-20T02:55:30;100529.34;;;6.34;100.00
62948;BME280;51940;52.126;-0.994;2023-03-20T02:57:58;100529.14;;;6.35;100.00
62948;BME280;51940;52.126;-0.994;2023-03-20T03:00:27;100528.61;;;6.35;100.00
62948;BME280;51940;52.126;-0.994;2023-03-20T03:05:30;100529.13;;;6.38;100.00
62948;BME280;51940;52.126;-0.994;2023-03-20T03:07:57;100527.34;;;6.39;100.00
62948;BME280;51940;52.126;-0.994;2023-03-20T03:10:26;100527.33;;;6.41;100.00
62948;BME280;51940;52.126;-0.994;2023-03-20T03:12:54;100522.02;;;6.43;100.00
62948;BME280;51940;52.126;-0.994;2023-03-20T03:15:34;100523.25;;;6.45;100.00
62948;BME280;51940;52.126;-0.994;2023-03-20T03:18:02;100525.70;;;6.46;100.00
62948;BME280;51940;52.126;-0.994;2023-03-20T03:20:32;100516.66;;;6.48;100.00
62948;BME280;51940;52.126;-0.994;2023-03-20T03:22:59;100519.70;;;6.49;100.00
62948;BME280;51940;52.126;-0.994;2023-03-20T03:25:27;100521.63;;;6.51;100.00
62948;BME280;51940;52.126;-0.994;2023-03-20T03:30:32;100512.91;;;6.54;100.00
62948;BME280;51940;52.126;-0.994;2023-03-20T03:33:13;100509.73;;;6.55;100.00
62948;BME280;51940;52.126;-0.994;2023-03-20T03:35:42;100510.95;;;6.56;100.00
62948;BME280;51940;52.126;-0.994;2023-03-20T03:38:17;100505.09;;;6.57;100.00
62948;BME280;51940;52.126;-0.994;2023-03-20T03:40:51;100505.46;;;6.58;100.00
62948;BME280;51940;52.126;-0.994;2023-03-20T03:43:33;100505.28;;;6.59;100.00
62948;BME280;51940;52.126;-0.994;2023-03-20T03:48:58;100499.23;;;6.61;100.00
62948;BME280;51940;52.126;-0.994;2023-03-20T03:51:27;100496.77;;;6.60;100.00
62948;BME280;51940;52.126;-0.994;2023-03-20T03:53:58;100492.86;;;6.61;100.00
62948;BME280;51940;52.126;-0.994;2023-03-20T03:56:25;100494.27;;;6.61;100.00
62948;BME280;51940;52.126;-0.994;2023-03-20T03:58:53;100494.80;;;6.61;100.00
62948;BME280;51940;52.126;-0.994;2023-03-20T04:01:20;100494.80;;;6.62;100.00
62948;BME280;51940;52.126;-0.994;2023-03-20T04:03:57;100493.55;;;6.62;100.00
62948;BME280;51940;52.126;-0.994;2023-03-20T04:06:25;100491.77;;;6.63;100.00
62948;BME280;51940;52.126;-0.994;2023-03-20T04:08:51;100487.70;;;6.63;100.00
62948;BME280;51940;52.126;-0.994;2023-03-20T04:11:17;100488.73;;;6.65;100.00
62948;BME280;51940;52.126;-0.994;2023-03-20T04:13:53;100492.27;;;6.66;100.00
62948;BME280;51940;52.126;-0.994;2023-03-20T04:16:20;100489.44;;;6.66;100.00
62948;BME280;51940;52.126;-0.994;2023-03-20T04:18:45;100486.63;;;6.67;100.00
62948;BME280;51940;52.126;-0.994;2023-03-20T04:21:11;100480.59;;;6.68;100.00
62948;BME280;51940;52.126;-0.994;2023-03-20T04:23:37;100475.97;;;6.69;100.00
62948;BME280;51940;52.126;-0.994;2023-03-20T04:26:03;100469.23;;;6.69;100.00
62948;BME280;51940;52.126;-0.994;2023-03-20T04:28:28;100466.92;;;6.70;100.00
62948;BME280;51940;52.126;-0.994;2023-03-20T04:30:54;100468.86;;;6.71;100.00
62948;BME280;51940;52.126;-0.994;2023-03-20T04:33:21;100469.02;;;6.72;100.00
62948;BME280;51940;52.126;-0.994;2023-03-20T04:35:46;100473.45;;;6.73;100.00
62948;BME280;51940;52.126;-0.994;2023-03-20T04:38:12;100478.23;;;6.73;100.00
62948;BME280;51940;52.126;-0.994;2023-03-20T04:40:37;100481.05;;;6.74;100.00
62948;BME280;51940;52.126;-0.994;2023-03-20T04:43:02;100474.85;;;6.75;100.00
62948;BME280;51940;52.126;-0.994;2023-03-20T04:45:28;100474.33;;;6.76;100.00
62948;BME280;51940;52.126;-0.994;2023-03-20T04:47:53;100474.67;;;6.77;100.00
62948;BME280;51940;52.126;-0.994;2023-03-20T04:50:19;100471.99;;;6.78;100.00
62948;BME280;51940;52.126;-0.994;2023-03-20T04:52:44;100470.05;;;6.79;100.00
62948;BME280;51940;52.126;-0.994;2023-03-20T04:55:09;100469.50;;;6.80;100.00
62948;BME280;51940;52.126;-0.994;2023-03-20T04:57:35;100470.38;;;6.82;100.00
62948;BME280;51940;52.126;-0.994;2023-03-20T05:00:00;100469.83;;;6.82;100.00
62948;BME280;51940;52.126;-0.994;2023-03-20T05:02:25;100467.17;;;6.83;100.00
62948;BME280;51940;52.126;-0.994;2023-03-20T05:04:51;100468.77;;;6.84;100.00
62948;BME280;51940;52.126;-0.994;2023-03-20T05:07:16;100467.35;;;6.85;100.00
62948;BME280;51940;52.126;-0.994;2023-03-20T05:09:42;100466.45;;;6.86;100.00
62948;BME280;51940;52.126;-0.994;2023-03-20T05:12:07;100464.13;;;6.88;100.00
62948;BME280;51940;52.126;-0.994;2023-03-20T05:14:33;100465.54;;;6.89;100.00
62948;BME280;51940;52.126;-0.994;2023-03-20T05:17:00;100472.98;;;6.89;100.00
62948;BME280;51940;52.126;-0.994;2023-03-20T05:19:25;100474.55;;;6.91;100.00
62948;BME280;51940;52.126;-0.994;2023-03-20T05:21:51;100478.27;;;6.91;100.00
62948;BME280;51940;52.126;-0.994;2023-03-20T05:24:16;100472.79;;;6.92;100.00
62948;BME280;51940;52.126;-0.994;2023-03-20T05:26:42;100472.06;;;6.94;100.00
62948;BME280;51940;52.126;-0.994;2023-03-20T05:29:07;100465.84;;;6.95;100.00
62948;BME280;51940;52.126;-0.994;2023-03-20T05:31:32;100457.69;;;6.96;100.00
62948;BME280;51940;52.126;-0.994;2023-03-20T05:33:57;100455.71;;;6.97;100.00
62948;BME280;51940;52.126;-0.994;2023-03-20T05:36:23;100459.77;;;6.98;100.00
62948;BME280;51940;52.126;-0.994;2023-03-20T05:38:48;100463.48;;;6.99;100.00
62948;BME280;51940;52.126;-0.994;2023-03-20T05:41:13;100458.16;;;7.00;100.00
62948;BME280;51940;52.126;-0.994;2023-03-20T05:43:40;100461.73;;;7.01;100.00
62948;BME280;51940;52.126;-0.994;2023-03-20T05:46:06;100457.98;;;7.02;100.00
62948;BME280;51940;52.126;-0.994;2023-03-20T05:48:31;100456.73;;;7.03;100.00
62948;BME280;51940;52.126;-0.994;2023-03-20T05:50:56;100452.28;;;7.04;100.00
62948;BME280;51940;52.126;-0.994;2023-03-20T05:53:22;100458.10;;;7.07;100.00
62948;BME280;51940;52.126;-0.994;2023-03-20T05:55:48;100456.31;;;7.09;100.00
62948;BME280;51940;52.126;-0.994;2023-03-20T05:58:14;100454.71;;;7.11;100.00
62948;BME280;51940;52.126;-0.994;2023-03-20T06:00:39;100452.39;;;7.13;100.00
62948;BME280;51940;52.126;-0.994;2023-03-20T06:03:04;100454.66;;;7.15;100.00
62948;BME280;51940;52.126;-0.994;2023-03-20T06:05:33;100447.38;;;7.16;100.00
62948;BME280;51940;52.126;-0.994;2023-03-20T06:07:59;100443.30;;;7.18;100.00
62948;BME280;51940;52.126;-0.994;2023-03-20T06:10:25;100441.15;;;7.20;100.00
62948;BME280;51940;52.126;-0.994;2023-03-20T06:12:52;100439.69;;;7.23;100.00
62948;BME280;51940;52.126;-0.994;2023-03-20T06:15:18;100448.36;;;7.25;100.00
62948;BME280;51940;52.126;-0.994;2023-03-20T06:17:43;100446.41;;;7.27;100.00
62948;BME280;51940;52.126;-0.994;2023-03-20T06:20:08;100444.98;;;7.29;100.00
62948;BME280;51940;52.126;-0.994;2023-03-20T06:22:34;100454.16;;;7.31;100.00
62948;BME280;51940;52.126;-0.994;2023-03-20T06:24:59;100444.55;;;7.32;100.00
62948;BME280;51940;52.126;-0.994;2023-03-20T06:27:26;100445.96;;;7.34;100.00
62948;BME280;51940;52.126;-0.994;2023-03-20T06:29:54;100450.75;;;7.36;100.00
62948;BME280;51940;52.126;-0.994;2023-03-20T06:32:20;100457.28;;;7.39;100.00
62948;BME280;51940;52.126;-0.994;2023-03-20T06:34:46;100459.19;;;7.42;100.00
62948;BME280;51940;52.126;-0.994;2023-03-20T06:37:13;100457.95;;;7.44;100.00
62948;BME280;51940;52.126;-0.994;2023-03-20T06:39:38;100460.40;;;7.47;100.00
62948;BME280;51940;52.126;-0.994;2023-03-20T06:42:04;100464.44;;;7.50;100.00
62948;BME280;51940;52.126;-0.994;2023-03-20T06:44:30;100466.37;;;7.52;100.00
62948;BME280;51940;52.126;-0.994;2023-03-20T06:46:56;100469.35;;;7.56;100.00
62948;BME280;51940;52.126;-0.994;2023-03-20T06:49:23;100472.50;;;7.59;100.00
62948;BME280;51940;52.126;-0.994;2023-03-20T06:51:58;100473.19;;;7.62;100.00
62948;BME280;51940;52.126;-0.994;2023-03-20T06:54:23;100479.69;;;7.67;100.00
62948;BME280;51940;52.126;-0.994;2023-03-20T06:56:48;100480.39;;;7.70;100.00
62948;BME280;51940;52.126;-0.994;2023-03-20T06:59:14;100479.63;;;7.73;100.00
62948;BME280;51940;52.126;-0.994;2023-03-20T07:01:39;100477.80;;;7.77;100.00
62948;BME280;51940;52.126;-0.994;2023-03-20T07:04:06;100482.92;;;7.81;100.00
62948;BME280;51940;52.126;-0.994;2023-03-20T07:06:31;100482.70;;;7.84;100.00
62948;BME280;51940;52.126;-0.994;2023-03-20T07:08:58;100479.13;;;7.87;100.00
62948;BME280;51940;52.126;-0.994;2023-03-20T07:11:25;100476.05;;;7.90;100.00
62948;BME280;51940;52.126;-0.994;2023-03-20T07:13:51;100470.50;;;7.93;100.00
62948;BME280;51940;52.126;-0.994;2023-03-20T07:16:17;100475.07;;;7.99;100.00
62948;BME280;51940;52.126;-0.994;2023-03-20T07:18:43;100480.53;;;8.02;100.00
62948;BME280;51940;52.126;-0.994;2023-03-20T07:21:08;100475.34;;;8.06;100.00
62948;BME280;51940;52.126;-0.994;2023-03-20T07:23:33;100475.99;;;8.09;100.00
62948;BME280;51940;52.126;-0.994;2023-03-20T07:25:59;100482.18;;;8.13;100.00
62948;BME280;51940;52.126;-0.994;2023-03-20T07:28:24;100483.02;;;8.16;100.00
62948;BME280;51940;52.126;-0.994;2023-03-20T07:30:50;100482.27;;;8.20;100.00
62948;BME280;51940;52.126;-0.994;2023-03-20T07:33:15;100482.72;;;8.26;100.00
62948;BME280;51940;52.126;-0.994;2023-03-20T07:35:41;100472.52;;;8.31;100.00
62948;BME280;51940;52.126;-0.994;2023-03-20T07:38:07;100474.08;;;8.35;100.00
62948;BME280;51940;52.126;-0.994;2023-03-20T07:40:32;100467.46;;;8.40;100.00
62948;BME280;51940;52.126;-0.994;2023-03-20T07:42:57;100467.55;;;8.46;100.00
62948;BME280;51940;52.126;-0.994;2023-03-20T07:45:23;100467.64;;;8.52;100.00
62948;BME280;51940;52.126;-0.994;2023-03-20T07:47:48;100471.82;;;8.58;100.00
62948;BME280;51940;52.126;-0.994;2023-03-20T07:50:14;100470.48;;;8.64;100.00
62948;BME280;51940;52.126;-0.994;2023-03-20T07:52:39;100472.55;;;8.68;100.00
62948;BME280;51940;52.126;-0.994;2023-03-20T07:55:05;100470.55;;;8.71;100.00
62948;BME280;51940;52.126;-0.994;2023-03-20T07:57:31;100469.28;;;8.73;100.00
62948;BME280;51940;52.126;-0.994;2023-03-20T07:59:56;100469.56;;;8.77;100.00
62948;BME280;51940;52.126;-0.994;2023-03-20T08:02:22;100468.08;;;8.82;100.00
62948;BME280;51940;52.126;-0.994;2023-03-20T08:04:48;100464.23;;;8.89;100.00
62948;BME280;51940;52.126;-0.994;2023-03-20T08:07:14;100464.98;;;8.97;100.00
62948;BME280;51940;52.126;-0.994;2023-03-20T08:09:40;100470.39;;;9.03;100.00
62948;BME280;51940;52.126;-0.994;2023-03-20T08:12:06;100469.44;;;9.08;100.00
62948;BME280;51940;52.126;-0.994;2023-03-20T08:14:32;100474.13;;;9.14;100.00
62948;BME280;51940;52.126;-0.994;2023-03-20T08:16:58;100472.61;;;9.20;100.00
62948;BME280;51940;52.126;-0.994;2023-03-20T08:19:23;100475.88;;;9.26;100.00
62948;BME280;51940;52.126;-0.994;2023-03-20T08:21:49;100477.55;;;9.32;100.00
62948;BME280;51940;52.126;-0.994;2023-03-20T08:24:16;100478.85;;;9.39;100.00
62948;BME280;51940;52.126;-0.994;2023-03-20T08:26:43;100473.97;;;9.43;100.00
62948;BME280;51940;52.126;-0.994;2023-03-20T08:29:10;100475.84;;;9.48;100.00
62948;BME280;51940;52.126;-0.994;2023-03-20T08:31:36;100477.71;;;9.52;100.00
62948;BME280;51940;52.126;-0.994;2023-03-20T08:34:01;100475.98;;;9.59;100.00
62948;BME280;51940;52.126;-0.994;2023-03-20T08:36:27;100471.39;;;9.67;100.00
62948;BME280;51940;52.126;-0.994;2023-03-20T08:38:54;100472.65;;;9.75;100.00
62948;BME280;51940;52.126;-0.994;2023-03-20T08:41:21;100473.20;;;9.84;100.00
62948;BME280;51940;52.126;-0.994;2023-03-20T08:43:48;100469.43;;;9.94;100.00
62948;BME280;51940;52.126;-0.994;2023-03-20T08:46:14;100460.14;;;10.04;100.00
62948;BME280;51940;52.126;-0.994;2023-03-20T08:48:39;100456.52;;;10.15;100.00
62948;BME280;51940;52.126;-0.994;2023-03-20T08:51:05;100457.92;;;10.26;100.00
62948;BME280;51940;52.126;-0.994;2023-03-20T08:53:31;100460.09;;;10.33;100.00
62948;BME280;51940;52.126;-0.994;2023-03-20T08:55:56;100461.21;;;10.39;100.00
62948;BME280;51940;52.126;-0.994;2023-03-20T08:58:23;100459.98;;;10.45;100.00
62948;BME280;51940;52.126;-0.994;2023-03-20T09:00:48;100464.17;;;10.50;100.00
62948;BME280;51940;52.126;-0.994;2023-03-20T09:03:14;100464.81;;;10.53;100.00
62948;BME280;51940;52.126;-0.994;2023-03-20T09:05:45;100470.05;;;10.57;100.00
62948;BME280;51940;52.126;-0.994;2023-03-20T09:08:10;100468.52;;;10.62;100.00
62948;BME280;51940;52.126;-0.994;2023-03-20T09:10:36;100475.35;;;10.67;100.00
62948;BME280;51940;52.126;-0.994;2023-03-20T09:13:01;100478.12;;;10.71;100.00
62948;BME280;51940;52.126;-0.994;2023-03-20T09:15:27;100474.59;;;10.78;100.00
62948;BME280;51940;52.126;-0.994;2023-03-20T09:17:53;100465.70;;;10.90;100.00
62948;BME280;51940;52.126;-0.994;2023-03-20T09:20:19;100458.52;;;11.07;100.00
62948;BME280;51940;52.126;-0.994;2023-03-20T09:22:46;100461.80;;;11.25;100.00
62948;BME280;51940;52.126;-0.994;2023-03-20T09:25:12;100463.95;;;11.39;100.00
62948;BME280;51940;52.126;-0.994;2023-03-20T09:27:37;100468.48;;;11.49;100.00
62948;BME280;51940;52.126;-0.994;2023-03-20T09:30:04;100469.83;;;11.59;100.00
62948;BME280;51940;52.126;-0.994;2023-03-20T09:32:31;100475.27;;;11.63;100.00
62948;BME280;51940;52.126;-0.994;2023-03-20T09:34:57;100477.73;;;11.65;100.00
62948;BME280;51940;52.126;-0.994;2023-03-20T09:37:23;100481.91;;;11.69;100.00
62948;BME280;51940;52.126;-0.994;2023-03-20T09:39:48;100484.08;;;11.74;100.00
62948;BME280;51940;52.126;-0.994;2023-03-20T09:44:53;100486.83;;;11.86;100.00
62948;BME280;51940;52.126;-0.994;2023-03-20T09:49:58;100489.51;;;11.92;100.00
62948;BME280;51940;52.126;-0.994;2023-03-20T09:54:58;100495.33;;;12.08;100.00
62948;BME280;51940;52.126;-0.994;2023-03-20T09:57:27;100497.48;;;12.14;100.00
62948;BME280;51940;52.126;-0.994;2023-03-20T09:59:55;100498.19;;;12.20;100.00
62948;BME280;51940;52.126;-0.994;2023-03-20T10:02:28;100498.27;;;12.29;100.00
62948;BME280;51940;52.126;-0.994;2023-03-20T10:04:58;100494.36;;;12.34;100.00
62948;BME280;51940;52.126;-0.994;2023-03-20T10:07:23;100492.52;;;12.42;100.00
62948;BME280;51940;52.126;-0.994;2023-03-20T10:09:51;100493.77;;;12.49;100.00
62948;BME280;51940;52.126;-0.994;2023-03-20T10:25:31;100494.08;;;13.01;100.00
62948;BME280;51940;52.126;-0.994;2023-03-20T10:27:58;100489.06;;;13.18;100.00
62948;BME280;51940;52.126;-0.994;2023-03-20T10:35:32;100482.86;;;13.64;100.00
62948;BME280;51940;52.126;-0.994;2023-03-20T10:38:06;100488.36;;;13.70;100.00
62948;BME280;51940;52.126;-0.994;2023-03-20T10:40:36;100484.43;;;13.70;100.00
62948;BME280;51940;52.126;-0.994;2023-03-20T10:43:17;100480.27;;;13.66;100.00
62948;BME280;51940;52.126;-0.994;2023-03-20T10:45:56;100484.34;;;13.62;100.00
62948;BME280;51940;52.126;-0.994;2023-03-20T10:48:29;100484.52;;;13.52;100.00
62948;BME280;51940;52.126;-0.994;2023-03-20T10:50:57;100484.27;;;13.39;100.00
62948;BME280;51940;52.126;-0.994;2023-03-20T10:53:31;100486.52;;;13.30;100.00
62948;BME280;51940;52.126;-0.994;2023-03-20T10:56:11;100481.67;;;13.25;100.00
62948;BME280;51940;52.126;-0.994;2023-03-20T10:58:39;100478.55;;;13.22;100.00
62948;BME280;51940;52.126;-0.994;2023-03-20T11:01:06;100481.29;;;13.36;100.00
62948;BME280;51940;52.126;-0.994;2023-03-20T11:03:33;100482.31;;;13.48;100.00
62948;BME280;51940;52.126;-0.994;2023-03-20T11:06:05;100475.44;;;13.65;100.00
62948;BME280;51940;52.126;-0.994;2023-03-20T11:08:34;100467.30;;;13.77;100.00
62948;BME280;51940;52.126;-0.994;2023-03-20T11:11:03;100467.90;;;13.91;100.00
62948;BME280;51940;52.126;-0.994;2023-03-20T11:13:30;100463.98;;;14.04;100.00
62948;BME280;51940;52.126;-0.994;2023-03-20T11:15:57;100465.73;;;14.11;100.00
62948;BME280;51940;52.126;-0.994;2023-03-20T11:18:33;100464.44;;;14.06;100.00
62948;BME280;51940;52.126;-0.994;2023-03-20T11:21:00;100458.92;;;14.00;100.00
62948;BME280;51940;52.126;-0.994;2023-03-20T11:23:26;100463.85;;;13.98;100.00
62948;BME280;51940;52.126;-0.994;2023-03-20T11:25:55;100459.73;;;13.94;100.00
62948;BME280;51940;52.126;-0.994;2023-03-20T11:28:32;100456.16;;;13.93;100.00
62948;BME280;51940;52.126;-0.994;2023-03-20T11:31:05;100453.27;;;14.13;100.00
62948;BME280;51940;52.126;-0.994;2023-03-20T11:33:52;100449.98;;;14.37;100.00
62948;BME280;51940;52.126;-0.994;2023-03-20T11:36:24;100447.29;;;14.42;100.00
62948;BME280;51940;52.126;-0.994;2023-03-20T11:38:51;100444.92;;;14.57;100.00
62948;BME280;51940;52.126;-0.994;2023-03-20T11:41:18;100438.61;;;14.71;100.00
62948;BME280;51940;52.126;-0.994;2023-03-20T11:43:43;100436.73;;;14.83;100.00
62948;BME280;51940;52.126;-0.994;2023-03-20T11:46:09;100441.86;;;14.97;100.00
62948;BME280;51940;52.126;-0.994;2023-03-20T11:48:38;100438.79;;;15.02;100.00
62948;BME280;51940;52.126;-0.994;2023-03-20T11:51:05;100444.67;;;14.95;100.00
62948;BME280;51940;52.126;-0.994;2023-03-20T11:53:33;100441.09;;;14.90;100.00
62948;BME280;51940;52.126;-0.994;2023-03-20T11:58:57;100437.59;;;15.01;100.00
62948;BME280;51940;52.126;-0.994;2023-03-20T12:01:24;100441.55;;;15.05;100.00
62948;BME280;51940;52.126;-0.994;2023-03-20T12:03:52;100432.41;;;15.13;100.00
62948;BME280;51940;52.126;-0.994;2023-03-20T12:06:26;100432.24;;;15.25;100.00
62948;BME280;51940;52.126;-0.994;2023-03-20T12:13:46;100438.11;;;15.60;100.00
62948;BME280;51940;52.126;-0.994;2023-03-20T12:16:14;100432.36;;;15.64;100.00
62948;BME280;51940;52.126;-0.994;2023-03-20T12:18:51;100432.07;;;15.71;100.00
62948;BME280;51940;52.126;-0.994;2023-03-20T12:21:25;100426.27;;;15.80;100.00
62948;BME280;51940;52.126;-0.994;2023-03-20T12:23:55;100428.03;;;15.85;100.00
62948;BME280;51940;52.126;-0.994;2023-03-20T12:26:35;100425.02;;;15.92;100.00
62948;BME280;51940;52.126;-0.994;2023-03-20T12:29:09;100425.77;;;15.91;100.00
62948;BME280;51940;52.126;-0.994;2023-03-20T12:31:44;100432.80;;;15.87;100.00
62948;BME280;51940;52.126;-0.994;2023-03-20T12:34:14;100434.69;;;15.81;100.00
62948;BME280;51940;52.126;-0.994;2023-03-20T12:36:47;100432.84;;;15.78;100.00
62948;BME280;51940;52.126;-0.994;2023-03-20T12:39:16;100430.91;;;15.77;100.00
62948;BME280;51940;52.126;-0.994;2023-03-20T12:54:40;100421.42;;;15.59;100.00
62948;BME280;51940;52.126;-0.994;2023-03-20T13:04:44;100413.55;;;15.63;100.00
62948;BME280;51940;52.126;-0.994;2023-03-20T13:07:19;100410.42;;;15.60;100.00
62948;BME280;51940;52.126;-0.994;2023-03-20T13:09:48;100410.99;;;15.68;100.00
62948;BME280;51940;52.126;-0.994;2023-03-20T13:22:35;100392.20;;;15.78;100.00
62948;BME280;51940;52.126;-0.994;2023-03-20T13:25:24;100397.05;;;15.70;100.00
62948;BME280;51940;52.126;-0.994;2023-03-20T13:28:01;100397.09;;;15.61;100.00
62948;BME280;51940;52.126;-0.994;2023-03-20T13:30:36;100404.10;;;15.48;100.00
62948;BME280;51940;52.126;-0.994;2023-03-20T13:35:43;100392.98;;;15.32;100.00
62948;BME280;51940;52.126;-0.994;2023-03-20T13:38:21;100389.18;;;15.32;100.00
62948;BME280;51940;52.126;-0.994;2023-03-20T13:40:48;100389.64;;;15.34;100.00
62948;BME280;51940;52.126;-0.994;2023-03-20T13:43:27;100387.29;;;15.39;100.00
62948;BME280;51940;52.126;-0.994;2023-03-20T13:45:58;100387.74;;;15.40;100.00
62948;BME280;51940;52.126;-0.994;2023-03-20T13:48:36;100387.77;;;15.35;100.00
62948;BME280;51940;52.126;-0.994;2023-03-20T13:51:09;100388.48;;;15.32;100.00
62948;BME280;51940;52.126;-0.994;2023-03-20T13:58:53;100382.20;;;15.23;100.00
62948;BME280;51940;52.126;-0.994;2023-03-20T14:04:11;100377.30;;;15.16;100.00
62948;BME280;51940;52.126;-0.994;2023-03-20T14:06:42;100377.86;;;15.24;100.00
62948;BME280;51940;52.126;-0.994;2023-03-20T14:09:25;100376.58;;;15.29;100.00
62948;BME280;51940;52.126;-0.994;2023-03-20T14:11:53;100370.32;;;15.19;100.00
62948;BME280;51940;52.126;-0.994;2023-03-20T14:14:25;100375.73;;;15.15;100.00
62948;BME280;51940;52.126;-0.994;2023-03-20T14:17:37;100377.48;;;15.12;100.00
62948;BME280;51940;52.126;-0.994;2023-03-20T14:19:37;100379.31;;;15.07;100.00
62948;BME280;51940;52.126;-0.994;2023-03-20T14:22:03;100378.23;;;14.99;100.00
62948;BME280;51940;52.126;-0.994;2023-03-20T14:24:32;100381.23;;;14.92;100.00
62948;BME280;51940;52.126;-0.994;2023-03-20T14:26:59;100379.19;;;14.89;100.00
62948;BME280;51940;52.126;-0.994;2023-03-20T14:29:30;100377.84;;;14.87;100.00